Time;durP1;ratioP1;P1;durP2;ratioP2;P2;SDS_P1;SDS_P2;PMS_P1;PMS_P2;Temp;Humidity;BMP_temperature;BMP_pressure;BME280_temperature;BME280_humidity;BME280_pressure;Samples;Min_cycle;Max_cycle;Signal;HPM_P1;HPM_P2
2023/07/02 00:01:37;;;;;;;5.88;1.00;;;17.10;99.90;;;;;;5004667;28;20494;-79
2023/07/02 00:04:03;;;;;;;3.65;0.88;;;17.10;99.90;;;;;;5026328;28;20037;-80
2023/07/02 00:06:28;;;;;;;3.33;0.57;;;17.10;99.90;;;;;;5004659;28;20064;-79
2023/07/02 00:08:54;;;;;;;4.25;0.77;;;17.10;99.90;;;;;;5023042;28;20030;-79
2023/07/02 00:11:20;;;;;;;5.82;0.60;;;17.10;99.90;;;;;;5016818;28;20071;-79
2023/07/02 00:13:46;;;;;;;2.85;0.70;;;17.10;99.90;;;;;;5021344;28;20049;-80
2023/07/02 00:16:12;;;;;;;5.70;1.38;;;17.00;99.90;;;;;;5026503;28;20064;-79
2023/07/02 00:18:38;;;;;;;6.38;1.80;;;17.00;99.90;;;;;;5009897;28;20025;-79
2023/07/02 00:21:05;;;;;;;7.93;1.80;;;17.00;99.90;;;;;;5024929;28;20526;-79
2023/07/02 00:23:31;;;;;;;9.57;1.70;;;17.10;99.90;;;;;;5018438;28;20034;-79
2023/07/02 00:25:57;;;;;;;5.10;1.70;;;17.10;99.90;;;;;;5017485;28;20052;-79
2023/07/02 00:28:23;;;;;;;5.30;1.58;;;17.10;99.90;;;;;;5004509;28;20033;-79
2023/07/02 00:30:50;;;;;;;8.13;2.40;;;17.10;99.90;;;;;;5022239;28;20030;-78
2023/07/02 00:33:16;;;;;;;6.65;1.58;;;17.10;99.90;;;;;;5020517;28;20034;-79
2023/07/02 00:35:41;;;;;;;6.75;2.80;;;17.10;99.90;;;;;;5007757;28;20559;-79
2023/07/02 00:38:07;;;;;;;8.00;2.70;;;17.10;99.90;;;;;;5003022;28;20040;-80
2023/07/02 00:40:33;;;;;;;7.47;3.35;;;17.10;99.90;;;;;;5018454;28;20058;-80
2023/07/02 00:42:58;;;;;;;18.05;5.30;;;17.10;99.90;;;;;;5016638;28;20029;-79
2023/07/02 00:45:27;;;;;;;9.85;3.78;;;17.10;99.90;;;;;;5019221;28;20033;-78
2023/07/02 00:47:54;;;;;;;9.20;3.88;;;17.10;99.90;;;;;;5005882;28;20041;-79
2023/07/02 00:50:22;;;;;;;10.25;4.20;;;17.10;99.90;;;;;;5022734;28;20034;-79
2023/07/02 00:52:48;;;;;;;10.85;5.00;;;17.10;99.90;;;;;;5022980;28;20025;-79
2023/07/02 00:55:15;;;;;;;9.27;4.30;;;17.10;99.90;;;;;;5019735;28;20398;-79
2023/07/02 00:57:46;;;;;;;11.77;5.20;;;17.10;99.90;;;;;;5017043;28;20034;-78
2023/07/02 01:00:13;;;;;;;11.43;4.65;;;17.10;99.90;;;;;;5018100;28;20129;-80
2023/07/02 01:02:43;;;;;;;10.95;5.10;;;17.10;99.90;;;;;;5007056;28;20134;-79
2023/07/02 01:05:14;;;;;;;12.63;5.03;;;17.10;99.90;;;;;;5029706;28;20042;-80
2023/07/02 01:07:41;;;;;;;10.57;4.40;;;17.10;99.90;;;;;;5004455;28;20037;-80
2023/07/02 01:10:07;;;;;;;12.77;4.85;;;17.10;99.90;;;;;;5019617;28;20026;-79
2023/07/02 01:12:35;;;;;;;16.40;5.40;;;16.90;99.90;;;;;;5023946;28;20077;-79
2023/07/02 01:15:04;;;;;;;11.20;4.53;;;16.80;99.90;;;;;;5034957;28;20049;-80
2023/07/02 01:17:39;;;;;;;11.82;4.65;;;16.60;99.90;;;;;;5035938;28;20038;-80
2023/07/02 01:20:08;;;;;;;12.07;4.43;;;16.40;99.90;;;;;;5004848;28;20036;-80
2023/07/02 01:22:34;;;;;;;14.38;4.28;;;16.20;99.90;;;;;;4999773;28;20108;-79
2023/07/02 01:25:02;;;;;;;12.30;3.88;;;16.00;99.90;;;;;;5025003;28;20045;-79
2023/07/02 01:27:30;;;;;;;8.90;4.25;;;15.90;99.90;;;;;;5009717;28;20196;-80
2023/07/02 01:29:56;;;;;;;11.10;4.50;;;15.80;99.90;;;;;;5008391;28;20033;-80
2023/07/02 01:32:23;;;;;;;13.00;3.47;;;15.80;99.90;;;;;;5021650;28;20031;-80
2023/07/02 01:34:53;;;;;;;11.45;3.55;;;15.70;99.90;;;;;;5025011;28;20490;-79
2023/07/02 01:37:19;;;;;;;8.88;3.70;;;15.70;99.90;;;;;;5011881;28;20105;-80
2023/07/02 01:39:45;;;;;;;14.50;3.85;;;15.70;99.90;;;;;;5019910;28;20309;-80
2023/07/02 01:42:15;;;;;;;11.95;3.28;;;15.70;99.90;;;;;;5026927;28;20040;-80
2023/07/02 01:44:41;;;;;;;;;;;15.70;99.90;;;;;;5026416;28;20091;-79
2023/07/02 01:47:07;;;;;;;10.57;3.80;;;15.60;99.90;;;;;;5010895;28;20010;-79
2023/07/02 01:49:34;;;;;;;10.88;3.88;;;15.60;99.90;;;;;;5009195;28;20064;-80
2023/07/02 01:52:00;;;;;;;8.00;3.30;;;15.60;99.90;;;;;;5026272;28;20117;-80
2023/07/02 01:54:27;;;;;;;10.80;3.80;;;15.60;99.90;;;;;;5021214;28;20164;-80
2023/07/02 01:56:54;;;;;;;14.45;4.80;;;15.60;99.90;;;;;;5008891;28;20026;-79
2023/07/02 01:59:20;;;;;;;9.90;3.67;;;15.60;99.90;;;;;;5007412;28;20411;-79
2023/07/02 02:01:47;;;;;;;8.07;4.13;;;15.60;99.90;;;;;;5033927;28;20041;-79
2023/07/02 02:04:13;;;;;;;9.43;3.80;;;15.50;99.90;;;;;;5040948;28;20042;-80
2023/07/02 02:06:39;;;;;;;12.88;3.92;;;15.50;99.90;;;;;;5008762;28;20108;-80
2023/07/02 02:09:06;;;;;;;10.95;4.53;;;15.50;99.90;;;;;;5004447;28;20030;-80
2023/07/02 02:11:33;;;;;;;13.27;4.13;;;15.40;99.90;;;;;;5021883;28;20032;-80
2023/07/02 02:14:01;;;;;;;10.80;4.05;;;15.30;99.90;;;;;;5007234;28;20045;-80
2023/07/02 02:16:27;;;;;;;19.10;4.80;;;15.30;99.90;;;;;;5023362;28;20556;-79
2023/07/02 02:18:53;;;;;;;10.07;3.80;;;15.20;99.90;;;;;;5018353;28;20026;-79
2023/07/02 02:21:21;;;;;;;10.07;3.58;;;15.20;99.90;;;;;;5025221;28;20052;-80
2023/07/02 02:23:47;;;;;;;9.65;3.17;;;15.00;99.90;;;;;;5021241;28;20033;-79
2023/07/02 02:26:13;;;;;;;6.78;3.30;;;15.00;99.90;;;;;;5010878;28;20021;-80
2023/07/02 02:28:39;;;;;;;11.15;4.25;;;14.90;99.90;;;;;;5028283;28;20025;-79
2023/07/02 02:31:05;;;;;;;9.85;4.13;;;14.80;99.90;;;;;;5021696;28;20034;-80
2023/07/02 02:33:32;;;;;;;10.30;3.80;;;14.70;99.90;;;;;;5008093;28;20025;-79
2023/07/02 02:35:58;;;;;;;13.48;4.40;;;14.70;99.90;;;;;;5006036;28;20017;-80
2023/07/02 02:38:24;;;;;;;10.27;5.18;;;14.70;99.90;;;;;;5009451;28;20535;-79
2023/07/02 02:40:50;;;;;;;14.85;4.72;;;14.70;99.90;;;;;;5007217;28;20371;-79
2023/07/02 02:43:20;;;;;;;10.10;4.07;;;14.70;99.90;;;;;;5026131;28;20100;-79
2023/07/02 02:45:46;;;;;;;10.60;3.83;;;14.60;99.90;;;;;;5022963;28;20030;-79
2023/07/02 02:48:12;;;;;;;9.50;3.83;;;14.60;99.90;;;;;;5010281;28;20128;-79
2023/07/02 02:50:41;;;;;;;6.10;3.05;;;14.60;99.90;;;;;;5020826;28;20108;-79
2023/07/02 02:53:07;;;;;;;11.63;3.65;;;14.60;99.90;;;;;;5018033;28;20045;-79
2023/07/02 02:55:33;;;;;;;10.52;4.35;;;14.60;99.90;;;;;;5033365;28;20065;-79
2023/07/02 02:57:59;;;;;;;10.40;3.63;;;14.60;99.90;;;;;;5004297;28;20505;-78
2023/07/02 03:00:25;;;;;;;7.07;3.20;;;14.50;99.90;;;;;;5005938;28;20474;-78
2023/07/02 03:02:51;;;;;;;7.78;2.80;;;14.50;99.90;;;;;;5021552;28;20047;-79
2023/07/02 03:05:16;;;;;;;9.02;3.17;;;14.50;99.90;;;;;;5015129;28;20496;-78
2023/07/02 03:07:42;;;;;;;6.10;2.53;;;14.50;99.90;;;;;;5021499;28;20022;-79
2023/07/02 03:10:08;;;;;;;11.40;3.38;;;14.50;99.90;;;;;;5025019;28;20025;-78
2023/07/02 03:12:34;;;;;;;7.53;2.47;;;14.40;99.90;;;;;;5021975;28;20116;-78
2023/07/02 03:15:00;;;;;;;5.70;1.92;;;14.50;99.90;;;;;;5022475;28;20108;-78
2023/07/02 03:17:26;;;;;;;7.53;2.10;;;14.50;99.90;;;;;;5006883;28;20052;-79
2023/07/02 03:19:52;;;;;;;5.68;2.05;;;14.50;99.90;;;;;;5024167;28;20025;-79
2023/07/02 03:22:18;;;;;;;3.92;1.50;;;14.50;99.90;;;;;;5002905;28;20493;-79
2023/07/02 03:24:43;;;;;;;6.60;1.85;;;14.50;99.90;;;;;;5023207;28;20034;-78
2023/07/02 03:27:09;;;;;;;5.22;2.05;;;14.50;99.90;;;;;;5022556;28;20029;-79
2023/07/02 03:29:35;;;;;;;7.55;2.63;;;14.50;99.90;;;;;;5022068;28;20522;-79
2023/07/02 03:32:01;;;;;;;8.25;2.63;;;14.50;99.90;;;;;;5019208;28;20032;-77
2023/07/02 03:34:27;;;;;;;7.95;2.67;;;14.50;99.90;;;;;;5006784;28;20067;-79
2023/07/02 03:36:53;;;;;;;8.32;3.03;;;14.60;99.90;;;;;;5008829;28;20057;-79
2023/07/02 03:39:19;;;;;;;6.28;2.60;;;14.50;99.90;;;;;;5023202;28;20057;-79
2023/07/02 03:41:45;;;;;;;9.73;3.28;;;14.50;99.90;;;;;;5008340;28;20040;-78
2023/07/02 03:44:10;;;;;;;7.90;3.05;;;14.50;99.90;;;;;;5008741;28;20509;-78
2023/07/02 03:46:36;;;;;;;10.15;3.05;;;14.50;99.90;;;;;;5016811;28;20056;-78
2023/07/02 03:49:03;;;;;;;10.68;3.78;;;14.50;99.90;;;;;;5022060;28;20474;-78
2023/07/02 03:51:29;;;;;;;9.32;4.35;;;14.50;99.90;;;;;;5020384;28;20034;-79
2023/07/02 03:53:54;;;;;;;13.10;3.95;;;14.50;99.90;;;;;;5019916;28;20030;-78
2023/07/02 03:56:20;;;;;;;12.70;4.35;;;14.50;99.90;;;;;;5018348;28;20076;-78
2023/07/02 03:58:46;;;;;;;11.23;3.65;;;14.60;99.90;;;;;;5025010;28;20026;-79
2023/07/02 04:01:13;;;;;;;9.13;3.47;;;14.60;99.90;;;;;;5016806;28;20048;-79
2023/07/02 04:03:47;;;;;;;10.23;3.10;;;14.60;99.90;;;;;;5010460;28;20495;-79
2023/07/02 04:06:12;;;;;;;7.20;2.88;;;14.60;99.90;;;;;;5019059;28;20069;-78
2023/07/02 04:08:38;;;;;;;6.15;2.40;;;14.60;99.90;;;;;;5002450;28;20429;-78
2023/07/02 04:11:04;;;;;;;9.32;2.90;;;14.60;99.90;;;;;;5019579;28;20087;-78
2023/07/02 04:13:29;;;;;;;8.07;3.00;;;14.60;99.90;;;;;;5003115;28;20083;-78
2023/07/02 04:15:55;;;;;;;10.10;3.92;;;14.70;99.90;;;;;;5018241;28;20061;-78
2023/07/02 04:18:21;;;;;;;11.27;3.78;;;14.70;99.90;;;;;;5021586;28;20024;-79
2023/07/02 04:20:46;;;;;;;8.93;3.92;;;14.70;99.90;;;;;;5019519;28;20052;-79
2023/07/02 04:23:12;;;;;;;11.43;4.10;;;14.60;99.90;;;;;;5016342;28;20034;-78
2023/07/02 04:25:38;;;;;;;12.70;4.13;;;14.60;99.90;;;;;;5018640;28;20032;-78
2023/07/02 04:28:03;;;;;;;10.23;4.45;;;14.60;99.90;;;;;;5018964;28;20216;-78
2023/07/02 04:30:29;;;;;;;10.60;3.63;;;14.70;99.90;;;;;;5005978;28;20060;-78
2023/07/02 04:32:55;;;;;;;12.90;4.70;;;14.70;99.90;;;;;;5019018;28;20030;-79
2023/07/02 04:35:20;;;;;;;11.70;5.05;;;14.80;99.90;;;;;;5021513;28;20026;-78
2023/07/02 04:37:46;;;;;;;15.07;4.20;;;14.90;99.90;;;;;;5009099;28;20026;-78
2023/07/02 04:40:12;;;;;;;12.70;4.25;;;15.00;99.90;;;;;;5032955;28;20030;-78
2023/07/02 04:42:39;;;;;;;12.35;4.22;;;15.00;99.90;;;;;;5029092;28;20029;-80
2023/07/02 04:45:06;;;;;;;11.77;3.80;;;15.00;99.90;;;;;;5001712;28;20037;-79
2023/07/02 04:47:32;;;;;;;16.50;5.68;;;15.10;99.90;;;;;;5018173;28;20036;-78
2023/07/02 04:49:59;;;;;;;11.23;4.43;;;15.10;99.90;;;;;;5008684;28;20108;-80
2023/07/02 04:52:24;;;;;;;13.55;4.95;;;15.10;99.90;;;;;;5020357;28;20024;-78
2023/07/02 04:54:50;;;;;;;11.80;4.30;;;15.10;99.90;;;;;;5005324;28;20029;-79
2023/07/02 04:57:16;;;;;;;15.02;5.20;;;15.20;99.90;;;;;;5024588;28;20033;-79
2023/07/02 04:59:42;;;;;;;11.68;4.03;;;15.20;99.90;;;;;;5019449;28;20052;-79
2023/07/02 05:02:08;;;;;;;13.25;4.75;;;15.30;99.90;;;;;;5026398;28;20520;-79
2023/07/02 05:04:34;;;;;;;11.95;4.63;;;15.20;99.90;;;;;;5027471;28;20038;-79
2023/07/02 05:07:00;;;;;;;13.68;4.13;;;15.30;99.90;;;;;;5008028;28;20072;-79
2023/07/02 05:09:26;;;;;;;16.27;5.00;;;15.40;99.90;;;;;;5009948;28;20075;-80
2023/07/02 05:11:51;;;;;;;14.35;4.32;;;15.50;99.90;;;;;;5006019;28;20290;-84
2023/07/02 05:14:17;;;;;;;18.23;5.68;;;15.70;99.90;;;;;;5011146;28;20022;-79
2023/07/02 05:16:43;;;;;;;11.60;5.05;;;15.80;99.90;;;;;;5007071;28;20037;-79
2023/07/02 05:19:09;;;;;;;16.48;5.78;;;15.90;99.90;;;;;;5011128;28;20022;-80
2023/07/02 05:21:35;;;;;;;13.55;5.50;;;16.00;99.90;;;;;;5009395;28;20026;-79
2023/07/02 05:24:00;;;;;;;12.88;4.63;;;15.90;99.90;;;;;;5023301;28;20100;-79
2023/07/02 05:26:27;;;;;;;20.67;7.40;;;15.90;99.90;;;;;;5026049;28;20032;-80
2023/07/02 05:28:53;;;;;;;17.05;5.53;;;15.80;99.90;;;;;;5024700;28;20043;-80
2023/07/02 05:31:18;;;;;;;16.08;5.93;;;15.80;99.90;;;;;;5025375;28;20018;-80
2023/07/02 05:33:44;;;;;;;14.18;5.65;;;15.90;99.90;;;;;;5008167;28;20471;-79
2023/07/02 05:36:10;;;;;;;13.38;5.70;;;16.10;99.90;;;;;;5022139;28;20025;-80
2023/07/02 05:38:35;;;;;;;20.42;5.72;;;16.00;99.90;;;;;;5022394;28;20021;-80
2023/07/02 05:41:03;;;;;;;19.60;5.65;;;15.90;99.90;;;;;;5010253;28;20502;-80
2023/07/02 05:43:29;;;;;;;18.58;5.25;;;15.90;99.90;;;;;;5022336;28;20056;-80
2023/07/02 05:45:58;;;;;;;15.93;6.15;;;15.90;99.90;;;;;;5022912;28;20017;-80
2023/07/02 05:48:23;;;;;;;13.07;5.05;;;15.90;99.90;;;;;;5005939;28;20022;-79
2023/07/02 05:50:49;;;;;;;21.45;5.85;;;16.10;99.90;;;;;;5033831;28;20030;-79
2023/07/02 05:53:15;;;;;;;14.45;5.15;;;16.20;99.90;;;;;;5024740;28;20036;-79
2023/07/02 05:55:42;;;;;;;17.63;5.53;;;16.20;99.90;;;;;;5022587;28;20427;-79
2023/07/02 05:58:08;;;;;;;17.08;5.78;;;16.20;99.90;;;;;;5024070;28;20057;-81
2023/07/02 06:00:34;;;;;;;19.90;6.00;;;16.30;99.90;;;;;;5023270;28;20056;-79
2023/07/02 06:03:00;;;;;;;20.90;5.38;;;16.30;99.90;;;;;;5012050;28;20414;-80
2023/07/02 06:05:25;;;;;;;17.08;6.32;;;16.40;99.90;;;;;;5017239;28;20041;-80
2023/07/02 06:07:51;;;;;;;20.80;6.35;;;16.50;99.90;;;;;;5003725;28;20502;-79
2023/07/02 06:10:17;;;;;;;17.92;6.88;;;16.50;99.90;;;;;;5018320;28;20033;-79
2023/07/02 06:12:43;;;;;;;13.68;5.95;;;16.60;99.90;;;;;;5021128;28;20026;-79
2023/07/02 06:15:09;;;;;;;18.70;5.65;;;16.60;99.90;;;;;;5025663;28;20059;-78
2023/07/02 06:17:35;;;;;;;15.45;5.60;;;16.60;99.90;;;;;;5009738;28;20042;-78
2023/07/02 06:20:04;;;;;;;18.85;5.50;;;16.60;99.90;;;;;;5019944;28;20026;-79
2023/07/02 06:22:31;;;;;;;17.60;5.45;;;16.70;99.90;;;;;;5015322;28;20030;-78
2023/07/02 06:24:56;;;;;;;17.45;5.40;;;16.70;99.90;;;;;;5005627;28;20048;-78
2023/07/02 06:27:22;;;;;;;18.67;6.05;;;16.70;99.90;;;;;;5009490;28;20346;-79
2023/07/02 06:29:48;;;;;;;17.95;5.65;;;16.70;99.90;;;;;;5005160;28;20033;-80
2023/07/02 06:32:14;;;;;;;18.30;5.72;;;16.70;99.90;;;;;;5025909;28;20350;-79
2023/07/02 06:34:39;;;;;;;18.58;5.03;;;16.90;99.90;;;;;;5008615;28;20102;-79
2023/07/02 06:37:06;;;;;;;17.00;5.20;;;17.30;99.90;;;;;;5016270;28;20036;-79
2023/07/02 06:39:31;;;;;;;17.73;4.72;;;17.20;99.90;;;;;;5016448;28;20038;-78
2023/07/02 06:41:57;;;;;;;17.85;6.30;;;17.20;99.90;;;;;;5017641;28;20025;-79
2023/07/02 06:44:28;;;;;;;19.67;5.22;;;17.20;99.90;;;;;;5008137;28;20448;-78
2023/07/02 06:46:54;;;;;;;15.02;4.65;;;17.10;99.90;;;;;;5009663;28;20529;-78
2023/07/02 06:49:20;;;;;;;14.88;4.95;;;17.10;99.90;;;;;;5020370;28;20133;-78
2023/07/02 06:51:46;;;;;;;11.68;4.53;;;17.20;99.90;;;;;;5008126;28;20026;-79
2023/07/02 06:54:13;;;;;;;18.02;4.90;;;17.30;99.90;;;;;;5019301;28;20427;-78
2023/07/02 06:56:39;;;;;;;15.13;5.03;;;17.30;99.90;;;;;;5002460;28;20034;-79
2023/07/02 06:59:04;;;;;;;16.92;4.97;;;17.30;99.90;;;;;;5013324;28;20029;-80
2023/07/02 07:01:30;;;;;;;17.95;5.13;;;17.50;99.90;;;;;;5002212;28;20106;-79
2023/07/02 07:03:56;;;;;;;12.00;4.47;;;17.40;99.90;;;;;;5013881;28;20044;-80
2023/07/02 07:06:21;;;;;;;13.82;4.22;;;17.20;99.90;;;;;;4996140;28;20124;-79
2023/07/02 07:08:47;;;;;;;18.08;4.57;;;17.10;99.90;;;;;;5019433;28;20057;-80
2023/07/02 07:11:13;;;;;;;14.80;4.10;;;17.10;99.90;;;;;;5004492;28;20083;-80
2023/07/02 07:13:38;;;;;;;13.68;4.65;;;17.10;99.90;;;;;;4999203;28;20025;-79
2023/07/02 07:16:04;;;;;;;13.40;4.65;;;17.20;99.90;;;;;;5003718;28;20042;-79
2023/07/02 07:18:31;;;;;;;15.02;4.63;;;17.20;99.90;;;;;;5012445;28;20021;-80
2023/07/02 07:20:56;;;;;;;17.05;4.50;;;17.20;99.90;;;;;;4996612;28;20378;-80
2023/07/02 07:23:22;;;;;;;12.75;4.75;;;17.20;99.90;;;;;;5001273;28;20083;-80
2023/07/02 07:25:48;;;;;;;12.55;3.53;;;17.20;99.90;;;;;;5020277;28;20033;-80
2023/07/02 07:28:16;;;;;;;13.60;3.78;;;17.30;99.90;;;;;;4996464;28;20021;-79
2023/07/02 07:30:43;;;;;;;13.07;3.67;;;17.40;99.90;;;;;;5012351;28;20125;-79
2023/07/02 07:33:09;;;;;;;9.95;3.30;;;17.40;99.90;;;;;;4998504;28;20017;-80
2023/07/02 07:35:35;;;;;;;14.32;3.72;;;17.40;99.90;;;;;;5016052;28;20474;-80
2023/07/02 07:38:01;;;;;;;15.30;3.97;;;17.50;99.90;;;;;;5017103;28;20080;-80
2023/07/02 07:40:26;;;;;;;13.45;3.92;;;17.50;99.90;;;;;;5017679;28;20402;-80
2023/07/02 07:42:52;;;;;;;9.90;3.28;;;17.70;99.90;;;;;;5002719;28;20022;-80
2023/07/02 07:45:18;;;;;;;13.93;4.22;;;17.80;99.90;;;;;;5015312;28;20446;-79
2023/07/02 07:47:43;;;;;;;9.15;3.35;;;17.70;99.90;;;;;;5013858;28;20041;-80
2023/07/02 07:50:12;;;;;;;9.77;3.13;;;17.90;99.90;;;;;;5015568;28;20114;-80
2023/07/02 07:52:39;;;;;;;11.98;3.28;;;18.20;99.90;;;;;;5001251;28;20021;-79
2023/07/02 07:55:06;;;;;;;13.77;3.88;;;18.10;99.90;;;;;;5015051;28;20034;-80
2023/07/02 07:57:32;;;;;;;9.25;3.25;;;18.10;99.90;;;;;;5001834;28;20041;-80
2023/07/02 07:59:57;;;;;;;12.10;3.55;;;18.30;99.90;;;;;;5014665;28;20026;-79
2023/07/02 08:02:23;;;;;;;11.52;3.35;;;18.20;99.90;;;;;;4997235;28;20139;-78
2023/07/02 08:04:49;;;;;;;8.70;2.67;;;18.60;99.90;;;;;;5013515;28;20059;-80
2023/07/02 08:07:15;;;;;;;11.15;3.03;;;18.40;99.90;;;;;;5019065;28;20048;-79
2023/07/02 08:09:41;;;;;;;11.40;3.22;;;18.30;99.90;;;;;;5016725;28;20384;-78
2023/07/02 08:12:07;;;;;;;8.95;2.97;;;18.50;99.90;;;;;;5000901;28;20030;-80
2023/07/02 08:14:34;;;;;;;10.15;2.83;;;18.50;99.90;;;;;;5017032;28;20383;-80
2023/07/02 08:17:01;;;;;;;12.18;3.40;;;18.50;99.90;;;;;;5018965;28;20065;-79
2023/07/02 08:19:26;;;;;;;12.82;3.70;;;18.70;99.90;;;;;;4996375;28;20029;-80
2023/07/02 08:21:52;;;;;;;10.65;3.00;;;18.50;99.90;;;;;;5011000;28;20076;-79
2023/07/02 08:24:18;;;;;;;14.27;4.10;;;18.70;99.90;;;;;;5010899;28;20037;-80
2023/07/02 08:26:44;;;;;;;10.75;3.42;;;18.20;99.90;;;;;;4996609;28;20040;-79
2023/07/02 08:29:10;;;;;;;7.28;2.70;;;18.50;99.90;;;;;;5004633;28;20034;-80
2023/07/02 08:31:37;;;;;;;9.20;3.28;;;18.60;99.90;;;;;;5020251;28;20025;-81
2023/07/02 08:34:02;;;;;;;8.27;3.17;;;18.50;99.90;;;;;;5018368;28;20387;-78
2023/07/02 08:36:28;;;;;;;11.13;3.03;;;18.50;99.90;;;;;;4998521;28;20274;-80
2023/07/02 08:38:54;;;;;;;13.70;3.63;;;18.60;99.90;;;;;;5006363;28;20112;-78
2023/07/02 08:41:22;;;;;;;13.55;3.40;;;18.90;99.90;;;;;;5007352;28;20036;-79
2023/07/02 08:43:48;;;;;;;11.35;3.42;;;18.60;99.90;;;;;;5018154;28;20045;-79
2023/07/02 08:46:15;;;;;;;11.50;3.10;;;19.00;99.90;;;;;;5014734;28;20034;-79
2023/07/02 08:48:42;;;;;;;10.75;2.83;;;18.60;99.90;;;;;;5016499;28;20057;-80
2023/07/02 08:51:07;;;;;;;8.13;2.85;;;18.20;99.90;;;;;;5014793;28;20034;-80
2023/07/02 08:53:34;;;;;;;8.85;2.35;;;18.10;99.90;;;;;;5000104;28;20026;-80
2023/07/02 08:56:01;;;;;;;7.35;2.90;;;17.90;99.90;;;;;;5016232;28;20029;-80
2023/07/02 08:58:27;;;;;;;8.15;3.00;;;17.70;99.90;;;;;;5003416;28;20041;-81
2023/07/02 09:01:13;;;;;;;8.90;2.85;;;18.40;99.90;;;;;;5018748;28;20026;-80
2023/07/02 09:03:39;;;;;;;7.07;2.30;;;19.00;99.90;;;;;;4998816;28;20038;-81
2023/07/02 09:06:07;;;;;;;8.88;2.65;;;19.50;99.90;;;;;;5022082;28;20087;-81
2023/07/02 09:08:36;;;;;;;8.85;3.00;;;19.00;99.90;;;;;;5018928;28;20040;-80
2023/07/02 09:11:08;;;;;;;11.20;2.53;;;19.10;99.90;;;;;;5001038;28;20033;-80
2023/07/02 09:13:47;;;;;;;9.30;2.55;;;18.70;99.90;;;;;;5014358;28;20021;-80
2023/07/02 09:16:33;;;;;;;9.33;3.17;;;19.10;99.90;;;;;;5016155;28;20030;-79
2023/07/02 09:19:12;;;;;;;7.70;2.22;;;19.10;99.90;;;;;;5030100;28;20029;-80
2023/07/02 09:21:42;;;;;;;13.02;2.53;;;19.60;99.90;;;;;;5013720;28;20032;-81
2023/07/02 09:24:23;;;;;;;7.03;2.38;;;19.50;99.90;;;;;;5019254;28;20045;-81
2023/07/02 09:26:53;;;;;;;6.57;2.08;;;19.00;99.90;;;;;;5000041;28;20030;-80
2023/07/02 09:29:29;;;;;;;7.18;2.45;;;19.10;99.90;;;;;;5001209;28;20060;-80
2023/07/02 09:32:00;;;;;;;10.40;3.08;;;18.90;99.90;;;;;;5013335;28;20065;-80
2023/07/02 09:34:33;;;;;;;11.93;2.70;;;18.80;99.90;;;;;;5013365;28;20501;-81
2023/07/02 09:37:00;;;;;;;6.18;2.65;;;18.30;99.90;;;;;;5003067;28;20025;-81
2023/07/02 09:39:31;;;;;;;10.95;2.65;;;19.10;99.90;;;;;;4999526;28;20368;-81
2023/07/02 09:41:58;;;;;;;7.75;2.42;;;18.50;99.90;;;;;;5018834;28;20053;-80
2023/07/02 09:44:31;;;;;;;7.72;2.60;;;18.20;99.90;;;;;;5002584;28;20049;-81
2023/07/02 09:47:08;;;;;;;7.07;2.85;;;17.90;99.90;;;;;;5003315;28;20428;-81
2023/07/02 09:49:38;;;;;;;7.72;2.35;;;17.90;99.90;;;;;;4999681;28;20036;-80
2023/07/02 09:52:10;;;;;;;10.25;2.17;;;19.00;99.90;;;;;;5006029;28;20379;-80
2023/07/02 09:54:37;;;;;;;7.88;2.33;;;19.60;99.90;;;;;;5013903;28;20113;-80
2023/07/02 09:57:03;;;;;;;8.40;3.05;;;20.20;99.90;;;;;;5002332;28;20631;-80
2023/07/02 09:59:30;;;;;;;5.53;2.28;;;20.00;99.90;;;;;;5012702;28;20049;-81
2023/07/02 10:01:57;;;;;;;6.25;2.30;;;19.00;99.90;;;;;;5017705;28;20107;-81
2023/07/02 10:04:24;;;;;;;7.32;2.60;;;18.50;99.90;;;;;;5029744;28;20041;-80
2023/07/02 10:06:52;;;;;;;7.07;2.13;;;18.60;99.90;;;;;;4999226;28;20025;-80
2023/07/02 10:09:18;;;;;;;7.07;2.30;;;19.10;99.90;;;;;;5004535;28;20222;-81
2023/07/02 10:11:44;;;;;;;8.23;2.63;;;19.10;99.90;;;;;;5000813;28;20029;-79
2023/07/02 10:14:11;;;;;;;7.25;2.17;;;19.50;99.90;;;;;;4997955;28;20075;-81
2023/07/02 10:16:55;;;;;;;7.28;1.98;;;19.20;99.90;;;;;;4999929;28;20029;-80
2023/07/02 10:19:21;;;;;;;4.97;2.00;;;19.50;99.90;;;;;;5001310;28;20049;-81
2023/07/02 10:22:04;;;;;;;7.70;2.08;;;20.00;99.90;;;;;;5018839;28;20037;-80
2023/07/02 10:24:30;;;;;;;5.80;1.85;;;19.90;99.90;;;;;;5015787;28;20037;-78
2023/07/02 10:27:00;;;;;;;9.57;2.47;;;20.40;99.90;;;;;;5005989;28;20029;-81
2023/07/02 10:29:33;;;;;;;;;;;20.20;99.90;;;;;;4987441;28;20037;-82
2023/07/02 10:32:00;;;;;;;8.52;2.38;;;20.50;99.90;;;;;;5013806;28;20679;-80
2023/07/02 10:34:43;;;;;;;8.98;2.08;;;20.70;99.90;;;;;;5000246;28;20478;-80
2023/07/02 10:37:09;;;;;;;4.80;1.60;;;20.70;99.90;;;;;;5017808;28;20215;-80
2023/07/02 10:39:39;;;;;;;5.15;1.75;;;20.90;99.90;;;;;;5000409;28;20116;-81
2023/07/02 10:42:10;;;;;;;8.73;2.55;;;20.80;99.90;;;;;;5018490;28;20030;-81
2023/07/02 10:44:51;;;;;;;7.75;1.50;;;21.30;99.90;;;;;;5017096;28;20085;-81
2023/07/02 10:47:17;;;;;;;5.07;1.95;;;21.50;99.90;;;;;;4998398;28;20025;-81
2023/07/02 10:50:06;;;;;;;10.15;2.22;;;20.30;99.90;;;;;;5012376;28;20486;-81
2023/07/02 10:52:37;;;;;;;10.25;2.15;;;19.90;99.90;;;;;;5010769;28;20033;-82
2023/07/02 10:55:05;;;;;;;4.45;1.35;;;19.40;99.90;;;;;;5014830;28;20033;-82
2023/07/02 10:57:30;;;;;;;5.18;1.45;;;19.20;99.90;;;;;;5000872;28;20505;-80
2023/07/02 11:00:09;;;;;;;7.68;1.63;;;19.50;99.90;;;;;;5002690;28;20056;-80
2023/07/02 11:02:39;;;;;;;8.65;1.80;;;19.90;99.90;;;;;;5005303;28;20812;-81
2023/07/02 11:05:07;;;;;;;7.35;1.90;;;19.60;99.90;;;;;;5016535;28;20072;-80
2023/07/02 11:07:33;;;;;;;7.88;1.52;;;19.40;99.90;;;;;;5018348;28;20076;-82
2023/07/02 11:09:59;;;;;;;5.38;1.80;;;19.70;99.90;;;;;;5018640;28;20509;-81
2023/07/02 11:12:31;;;;;;;6.93;1.35;;;19.80;99.90;;;;;;5003623;28;20033;-81
2023/07/02 11:15:23;;;;;;;5.93;2.20;;;19.60;99.90;;;;;;5015917;28;20022;-82
2023/07/02 11:17:49;;;;;;;6.25;1.63;;;19.30;99.90;;;;;;4998545;28;20041;-81
2023/07/02 11:20:15;;;;;;;5.30;2.00;;;19.60;99.90;;;;;;5004590;28;20022;-81
2023/07/02 11:22:41;;;;;;;5.80;1.65;;;19.80;99.90;;;;;;4996013;28;20209;-81
2023/07/02 11:25:10;;;;;;;6.75;2.05;;;20.00;99.90;;;;;;5013642;28;20061;-81
2023/07/02 11:27:36;;;;;;;7.30;2.15;;;19.90;99.90;;;;;;5016459;28;20022;-82
2023/07/02 11:30:02;;;;;;;8.55;2.22;;;20.10;99.90;;;;;;5018211;28;20478;-80
2023/07/02 11:32:27;;;;;;;6.95;1.60;;;19.80;99.90;;;;;;5001114;28;20022;-81
2023/07/02 11:34:54;;;;;;;5.90;1.52;;;20.00;99.90;;;;;;5020932;28;20050;-81
2023/07/02 11:37:20;;;;;;;7.05;1.83;;;20.00;99.90;;;;;;5012770;28;20087;-80
2023/07/02 11:39:45;;;;;;;6.82;1.80;;;19.60;99.90;;;;;;4993160;28;20033;-81
2023/07/02 11:42:11;;;;;;;6.55;1.70;;;19.50;99.90;;;;;;5017068;28;20098;-82
2023/07/02 11:44:37;;;;;;;7.38;1.70;;;19.70;99.90;;;;;;5001938;28;20552;-81
2023/07/02 11:47:03;;;;;;;5.07;1.50;;;20.30;99.90;;;;;;5014534;28;20037;-81
2023/07/02 11:49:29;;;;;;;5.82;1.52;;;20.10;99.90;;;;;;5003960;28;20390;-81
2023/07/02 11:51:55;;;;;;;3.92;1.25;;;19.80;99.90;;;;;;5015326;28;20022;-81
2023/07/02 11:54:20;;;;;;;6.95;2.00;;;19.90;99.90;;;;;;5003592;28;21116;-82
2023/07/02 11:56:47;;;;;;;5.82;1.50;;;20.70;99.90;;;;;;5013094;28;20026;-81
2023/07/02 11:59:13;;;;;;;8.43;2.05;;;20.40;99.90;;;;;;5013463;28;20421;-80
2023/07/02 12:01:39;;;;;;;7.45;1.73;;;20.20;99.90;;;;;;5015296;28;20045;-81
2023/07/02 12:04:07;;;;;;;6.30;1.55;;;19.70;99.90;;;;;;5001961;28;20475;-81
2023/07/02 12:06:33;;;;;;;5.05;0.90;;;20.00;99.90;;;;;;5014261;28;20490;-81
2023/07/02 12:08:59;;;;;;;4.03;1.10;;;20.20;99.90;;;;;;5000268;28;20105;-81
2023/07/02 12:11:25;;;;;;;3.78;1.42;;;20.40;99.90;;;;;;5001048;28;20461;-80
2023/07/02 12:13:51;;;;;;;5.97;1.40;;;19.90;99.90;;;;;;5013237;28;20132;-81
2023/07/02 12:16:16;;;;;;;4.65;1.23;;;20.30;99.90;;;;;;5018321;28;20120;-81
2023/07/02 12:18:42;;;;;;;2.63;0.70;;;20.30;99.90;;;;;;5001394;28;20398;-80
2023/07/02 12:21:08;;;;;;;7.28;1.20;;;20.80;99.90;;;;;;5014855;28;20041;-80
2023/07/02 12:23:33;;;;;;;3.10;1.20;;;21.10;99.80;;;;;;4997589;28;20038;-81
2023/07/02 12:25:59;;;;;;;3.85;1.23;;;20.10;99.70;;;;;;5000791;28;20045;-81
2023/07/02 12:28:25;;;;;;;6.82;1.20;;;20.20;99.70;;;;;;5027960;28;20026;-81
2023/07/02 12:30:50;;;;;;;4.78;1.15;;;20.70;99.50;;;;;;4999322;28;20164;-80
2023/07/02 12:33:16;;;;;;;3.40;1.10;;;21.50;99.90;;;;;;5002118;28;20030;-81
2023/07/02 12:35:42;;;;;;;3.53;1.23;;;21.70;99.10;;;;;;5004181;28;20024;-80
2023/07/02 12:38:08;;;;;;;7.47;1.00;;;20.90;99.90;;;;;;5013280;28;20026;-81
2023/07/02 12:40:34;;;;;;;5.05;1.15;;;20.50;99.70;;;;;;5000176;28;20037;-81
2023/07/02 12:43:00;;;;;;;4.28;1.35;;;20.40;99.90;;;;;;4998212;28;20497;-81